Het weer levert geen direct gevaar op.    Er zijn geen waarschuwingen afgegeven.


Onweer radar Meer informatie blitzortung!


Regen radar Meer informatie rain snow radar


Bezoek onze andere website:

Template documentation
and downloads

And another site

Forum Leuven-template

EUWEATHER.EU

Verwachtingen Meteociel


U vindt ons ook hier:

Het Weer Aktueel

UK Metoffice

European Weather Network

WeatherCloud

Weather Underground

Benelux Weer Netwerk

AWEKAS

WeatherlinkIP

HAMweather, WeatherForYou, PWS Weather

Wetterpage 24

Wetter.com



METAR rapporten vliegvelden

   
EBAW - Antwerp
Gewijzigd: 18-04-2019 12:50
Helder  
Helder  
   Wind: Oosten 18.5 km/h
Wind: Oosten 18.5 km/h
Temperatuur: 21°C
Dauwpunt: 4°C
Vochtigheid: 33%
Barometer: 1023 hPa
Zicht: meer dan 10 km
Bewolking: Helder
EBAW 181050Z 09010KT 060V120 CAVOK 21/04 Q1023 NOSIG
EBLG - Li├Ęge
Gewijzigd: 18-04-2019 12:50
Helder  
Helder  
   Wind: Oosten 16.7 km/h
Wind: Oosten 16.7 km/h
Temperatuur: 19°C
Dauwpunt: 0°C
Vochtigheid: 28%
Barometer: 1023 hPa
Zicht: meer dan 10 km
Bewolking: Helder
EBLG 181050Z 10009KT 060V130 CAVOK 19/00 Q1023 NOSIG
EBCV - Mons/Bergen
Gewijzigd: 18-04-2019 12:55
Helder  
Helder  
   Wind: Oosten 18.5 km/h
Wind: Oosten 18.5 km/h
Temperatuur: 20°C
Dauwpunt: 7°C
Vochtigheid: 43%
Barometer: 1022 hPa
Bewolking: Helder
Zicht: meer dan 10 km
Bewolking: Helder
EBCV 181055Z AUTO 08010KT 9999 NCD 20/07 Q1022 BLU
EHBK - Maastricht
Gewijzigd: 18-04-2019 12:55
Helder  
Helder  
   Wind: Oosten 24.1 km/h
Wind: Oosten 24.1 km/h
Temperatuur: 19°C
Dauwpunt: 4°C
Vochtigheid: 37%
Barometer: 1023 hPa
Bewolking: Helder
Bewolking: Helder
EHBK 181055Z AUTO 10013KT 050V130 //// R03/P2000N // NCD 19/04 Q1023 NOSIG
ELLX - Luxemburg
Gewijzigd: 18-04-2019 12:50
Helder  
Helder  
   Wind: Oosten 20.4 km/h
Wind: Oosten 20.4 km/h
Temperatuur: 18°C
Dauwpunt: 3°C
Vochtigheid: 37%
Barometer: 1022 hPa
Zicht: meer dan 10 km
Bewolking: Helder
ELLX 181050Z 08011KT 050V150 CAVOK 18/03 Q1022 NOSIG
EBOS - Oostende
Gewijzigd: 18-04-2019 12:50
Helder  
Helder  
   Wind: Oosten 14.8 km/h
Wind: Oosten 14.8 km/h
Temperatuur: 20°C
Dauwpunt: 6°C
Vochtigheid: 40%
Barometer: 1023 hPa
Zicht: meer dan 10 km
Bewolking: Helder
EBOS 181050Z 08008KT 060V130 CAVOK 20/06 Q1023 NOSIG

Script ontwikkeld door  Saratoga-weather.org Aangepast voor de template door  Weerstation Leuven

Apparatuur in gebruik:

Weerstation
Davis VP2

Weerprogramma
Meteobridge

Weercomputer
Asus WL -330N3G

Webleverancier
Onecom

Davis VP2

Meteobridge

Asus WL -330N3G

Onecom